Portada
METAR-TAF:

METAR-TAF

Aeroports :

Pekanbaru, Indonèsia

latitud: 00-28N, longitud: 101-27E, altitud: 31 m

Observació

L'informe es va fer fa 31 minuts, a les 02:30 UTC
Vent 7 kt del Sud
Temperatura 30°C
Humitat 70%
Pressió 1011 hPa
Visibilitat: 9000 m
Núvols disperses a una alçada de 1300 ft

METAR: WIBB 240230Z 17007KT 9000 SCT013 30/24 Q1011

Hora: 10:01 (03:01 UTC)


TAF: manca

Observacions i pronòstics meteorològics de més de 4000 aeroports (METAR i TAF).

Les estacions disponibles són els punts grocs i vermells al mapa.

Posi el ratolí al punt desitjat per veure el nom de l'estació.

Feu clic per veure les observacions i els pronòstics meteorològics.

Per canviar el mapa: feu clic els botons verds amb una creu de color negre per apropar; al botó verd amb un guió per allunyar la imatge; o en les fletxes verdes per a mapes adjacents.


METAR-TAF: